SWA2890 KDCA-KBNA
Flight info
| Callsign | SWA2890 |
|---|---|
| Flight time | 1h 46m |
| Altitude | 38000 |
| Route | REBLL5 OTTTO Q80 DEWAK GROAT PASLY4 |
| Aircraft | B38M/M-SDE1FGHILORVWXY/HB1 |
Departure
| Time | 2026-05-07 15:15 |
|---|---|
| Airport | Ronald Reagan Washington National Airport (KDCA) |
Arrival
| Time | 2026-05-07 17:02 |
|---|---|
| Airport | Nashville International Airport (KBNA) |
| Time | Latitude | Longitude | Altitude | Speed | Heading |
|---|---|---|---|---|---|
| 2026-05-07 14:36 | 38.84647 | -77.04332 | 27 ft | 0 kts | 62° |
| 2026-05-07 15:06 | 38.84645 | -77.04335 | 36 ft | 3 kts | 63° |
| 2026-05-07 15:07 | 38.84636 | -77.04366 | 27 ft | 4 kts | 81° |
| 2026-05-07 15:07 | 38.84637 | -77.04399 | 27 ft | 4 kts | 111° |
| 2026-05-07 15:07 | 38.84651 | -77.04424 | 27 ft | 1 kts | 139° |
| 2026-05-07 15:07 | 38.84651 | -77.04425 | 27 ft | 0 kts | 140° |
| 2026-05-07 15:11 | 38.84647 | -77.04420 | 27 ft | 2 kts | 140° |
| 2026-05-07 15:12 | 38.84618 | -77.04388 | 27 ft | 9 kts | 140° |
| 2026-05-07 15:12 | 38.84566 | -77.04296 | 27 ft | 16 kts | 101° |
| 2026-05-07 15:12 | 38.84585 | -77.04144 | 27 ft | 17 kts | 77° |
| 2026-05-07 15:12 | 38.84595 | -77.04033 | 27 ft | 11 kts | 130° |
| 2026-05-07 15:13 | 38.84521 | -77.04011 | 27 ft | 12 kts | 172° |
| 2026-05-07 15:13 | 38.84438 | -77.03992 | 28 ft | 12 kts | 169° |
| 2026-05-07 15:13 | 38.84351 | -77.03959 | 29 ft | 14 kts | 140° |
| 2026-05-07 15:13 | 38.84288 | -77.03845 | 27 ft | 15 kts | 137° |
| 2026-05-07 15:14 | 38.84211 | -77.03766 | 27 ft | 12 kts | 123° |
| 2026-05-07 15:14 | 38.84204 | -77.03683 | 26 ft | 8 kts | 32° |
| 2026-05-07 15:14 | 38.84262 | -77.03687 | 30 ft | 10 kts | 359° |
| 2026-05-07 15:14 | 38.84354 | -77.03694 | 26 ft | 20 kts | 356° |
| 2026-05-07 15:15 | 38.84730 | -77.03734 | 27 ft | 92 kts | 355° |
| 2026-05-07 15:15 | 38.85581 | -77.03827 | 29 ft | 154 kts | 353° |
| 2026-05-07 15:15 | 38.86781 | -77.04002 | 222 ft | 192 kts | 354° |
| 2026-05-07 15:15 | 38.88106 | -77.04424 | 900 ft | 202 kts | 335° |
| 2026-05-07 15:16 | 38.89181 | -77.05653 | 1726 ft | 216 kts | 315° |
| 2026-05-07 15:16 | 38.90270 | -77.07158 | 2266 ft | 248 kts | 317° |
| 2026-05-07 15:16 | 38.91362 | -77.08921 | 3287 ft | 255 kts | 305° |
| 2026-05-07 15:16 | 38.92187 | -77.10863 | 4760 ft | 247 kts | 303° |
| 2026-05-07 15:17 | 38.93309 | -77.12536 | 5883 ft | 252 kts | 320° |
| 2026-05-07 15:17 | 38.94830 | -77.13720 | 6926 ft | 257 kts | 328° |
| 2026-05-07 15:17 | 38.96379 | -77.14949 | 7728 ft | 262 kts | 315° |
| 2026-05-07 15:17 | 38.97348 | -77.16807 | 8773 ft | 247 kts | 279° |
| 2026-05-07 15:18 | 38.97518 | -77.18999 | 9743 ft | 250 kts | 272° |
| 2026-05-07 15:18 | 38.97773 | -77.21237 | 10567 ft | 259 kts | 275° |
| 2026-05-07 15:18 | 38.98076 | -77.23577 | 11035 ft | 279 kts | 276° |
| 2026-05-07 15:18 | 38.98411 | -77.26165 | 11412 ft | 298 kts | 271° |
| 2026-05-07 15:19 | 38.98150 | -77.28790 | 11949 ft | 307 kts | 251° |
| 2026-05-07 15:19 | 38.97360 | -77.31398 | 12529 ft | 317 kts | 249° |
| 2026-05-07 15:19 | 38.96543 | -77.34045 | 13414 ft | 318 kts | 249° |
| 2026-05-07 15:19 | 38.95714 | -77.36693 | 14191 ft | 321 kts | 249° |
| 2026-05-07 15:20 | 38.94872 | -77.39348 | 14955 ft | 321 kts | 248° |
| 2026-05-07 15:20 | 38.94024 | -77.42007 | 15718 ft | 323 kts | 248° |
| 2026-05-07 15:20 | 38.93169 | -77.44677 | 16455 ft | 324 kts | 248° |
| 2026-05-07 15:20 | 38.92309 | -77.47361 | 17174 ft | 325 kts | 248° |
| 2026-05-07 15:21 | 38.91447 | -77.50045 | 17889 ft | 326 kts | 248° |
| 2026-05-07 15:21 | 38.90580 | -77.52742 | 18502 ft | 327 kts | 248° |
| 2026-05-07 15:21 | 38.89715 | -77.55432 | 19204 ft | 325 kts | 248° |
| 2026-05-07 15:21 | 38.88916 | -77.58118 | 19760 ft | 328 kts | 254° |
| 2026-05-07 15:22 | 38.88491 | -77.61009 | 20356 ft | 330 kts | 257° |
| 2026-05-07 15:22 | 38.88062 | -77.63925 | 20838 ft | 334 kts | 257° |
| 2026-05-07 15:22 | 38.87638 | -77.66857 | 21398 ft | 335 kts | 257° |
| 2026-05-07 15:22 | 38.87215 | -77.69802 | 21949 ft | 336 kts | 257° |
| 2026-05-07 15:23 | 38.86792 | -77.72763 | 22487 ft | 338 kts | 257° |
| 2026-05-07 15:23 | 38.86365 | -77.75745 | 22984 ft | 340 kts | 257° |
| 2026-05-07 15:23 | 38.85935 | -77.78748 | 23519 ft | 342 kts | 256° |
| 2026-05-07 15:23 | 38.85504 | -77.81754 | 23927 ft | 343 kts | 257° |
| 2026-05-07 15:24 | 38.85070 | -77.84770 | 24349 ft | 345 kts | 257° |
| 2026-05-07 15:24 | 38.84645 | -77.87803 | 24754 ft | 347 kts | 259° |
| 2026-05-07 15:24 | 38.84638 | -77.90926 | 25221 ft | 351 kts | 266° |
| 2026-05-07 15:24 | 38.84711 | -77.94055 | 25610 ft | 352 kts | 266° |
| 2026-05-07 15:25 | 38.84786 | -77.97161 | 26020 ft | 353 kts | 266° |
| 2026-05-07 15:25 | 38.84872 | -78.00316 | 26428 ft | 354 kts | 266° |
| 2026-05-07 15:25 | 38.84961 | -78.03481 | 26803 ft | 356 kts | 266° |
| 2026-05-07 15:25 | 38.85052 | -78.06659 | 27133 ft | 358 kts | 266° |
| 2026-05-07 15:26 | 38.85142 | -78.09854 | 27532 ft | 357 kts | 266° |
| 2026-05-07 15:26 | 38.85231 | -78.13023 | 28065 ft | 355 kts | 266° |
| 2026-05-07 15:26 | 38.85318 | -78.16174 | 28571 ft | 352 kts | 266° |
| 2026-05-07 15:26 | 38.85404 | -78.19295 | 29143 ft | 348 kts | 265° |
| 2026-05-07 15:27 | 38.85408 | -78.22373 | 29764 ft | 343 kts | 264° |
| 2026-05-07 15:27 | 38.85397 | -78.25424 | 30274 ft | 341 kts | 264° |
| 2026-05-07 15:27 | 38.85390 | -78.28451 | 30735 ft | 338 kts | 264° |
| 2026-05-07 15:27 | 38.85383 | -78.31462 | 31168 ft | 336 kts | 264° |
| 2026-05-07 15:28 | 38.85376 | -78.34455 | 31607 ft | 334 kts | 264° |
| 2026-05-07 15:28 | 38.85316 | -78.37417 | 32036 ft | 329 kts | 258° |
| 2026-05-07 15:28 | 38.84864 | -78.40268 | 32493 ft | 325 kts | 256° |
| 2026-05-07 15:28 | 38.84420 | -78.43108 | 32889 ft | 324 kts | 256° |
| 2026-05-07 15:29 | 38.83967 | -78.45933 | 33292 ft | 322 kts | 256° |
| 2026-05-07 15:29 | 38.83511 | -78.48742 | 33683 ft | 321 kts | 256° |
| 2026-05-07 15:29 | 38.83053 | -78.51542 | 34097 ft | 319 kts | 256° |
| 2026-05-07 15:29 | 38.82596 | -78.54324 | 34446 ft | 318 kts | 256° |
| 2026-05-07 15:30 | 38.82146 | -78.57060 | 34767 ft | 317 kts | 256° |
| 2026-05-07 15:30 | 38.81691 | -78.59815 | 35101 ft | 315 kts | 256° |
| 2026-05-07 15:30 | 38.81237 | -78.62564 | 35402 ft | 315 kts | 256° |
| 2026-05-07 15:30 | 38.80783 | -78.65305 | 35693 ft | 314 kts | 257° |
| 2026-05-07 15:31 | 38.80329 | -78.68041 | 36002 ft | 313 kts | 256° |
| 2026-05-07 15:31 | 38.79878 | -78.70758 | 36279 ft | 311 kts | 257° |
| 2026-05-07 15:31 | 38.79424 | -78.73486 | 36478 ft | 312 kts | 257° |
| 2026-05-07 15:31 | 38.78977 | -78.76171 | 36720 ft | 312 kts | 257° |
| 2026-05-07 15:32 | 38.78524 | -78.78889 | 36952 ft | 312 kts | 257° |
| 2026-05-07 15:32 | 38.78070 | -78.81607 | 37178 ft | 311 kts | 257° |
| 2026-05-07 15:32 | 38.77615 | -78.84320 | 37433 ft | 310 kts | 257° |
| 2026-05-07 15:32 | 38.77163 | -78.87015 | 37708 ft | 309 kts | 257° |
| 2026-05-07 15:33 | 38.76711 | -78.89709 | 37920 ft | 309 kts | 257° |
| 2026-05-07 15:33 | 38.76259 | -78.92407 | 37919 ft | 309 kts | 257° |
| 2026-05-07 15:33 | 38.75359 | -78.97747 | 37993 ft | 308 kts | 257° |
| 2026-05-07 15:34 | 38.74452 | -79.03112 | 37957 ft | 307 kts | 257° |
| 2026-05-07 15:34 | 38.73546 | -79.08452 | 37974 ft | 303 kts | 257° |
| 2026-05-07 15:35 | 38.72660 | -79.13676 | 37970 ft | 301 kts | 257° |
| 2026-05-07 15:35 | 38.71768 | -79.18916 | 37959 ft | 300 kts | 257° |
| 2026-05-07 15:36 | 38.71322 | -79.21532 | 37965 ft | 300 kts | 257° |
| 2026-05-07 15:36 | 38.70879 | -79.24156 | 37960 ft | 303 kts | 257° |
| 2026-05-07 15:36 | 38.70011 | -79.29442 | 37955 ft | 303 kts | 257° |
| 2026-05-07 15:37 | 38.69141 | -79.34722 | 37969 ft | 302 kts | 257° |
| 2026-05-07 15:37 | 38.68274 | -79.39966 | 37976 ft | 302 kts | 257° |
| 2026-05-07 15:38 | 38.67404 | -79.45219 | 37982 ft | 302 kts | 257° |
| 2026-05-07 15:38 | 38.66526 | -79.50501 | 37946 ft | 303 kts | 257° |
| 2026-05-07 15:39 | 38.65651 | -79.55748 | 38025 ft | 302 kts | 257° |
| 2026-05-07 15:39 | 38.64920 | -79.60132 | 37952 ft | 304 kts | 257° |
| 2026-05-07 15:40 | 38.63884 | -79.66308 | 37981 ft | 305 kts | 257° |
| 2026-05-07 15:40 | 38.63112 | -79.70736 | 37971 ft | 304 kts | 257° |
| 2026-05-07 15:41 | 38.62173 | -79.75985 | 37976 ft | 305 kts | 257° |
| 2026-05-07 15:41 | 38.61226 | -79.81269 | 38000 ft | 304 kts | 257° |
| 2026-05-07 15:42 | 38.60279 | -79.86546 | 37983 ft | 304 kts | 257° |
| 2026-05-07 15:42 | 38.59329 | -79.91823 | 37949 ft | 305 kts | 257° |
| 2026-05-07 15:43 | 38.58379 | -79.97089 | 37954 ft | 306 kts | 256° |
| 2026-05-07 15:43 | 38.57421 | -80.02380 | 38000 ft | 305 kts | 256° |
| 2026-05-07 15:44 | 38.56479 | -80.07669 | 38007 ft | 305 kts | 256° |
| 2026-05-07 15:44 | 38.55501 | -80.12957 | 38009 ft | 305 kts | 256° |
| 2026-05-07 15:45 | 38.54522 | -80.18236 | 37980 ft | 304 kts | 256° |
| 2026-05-07 15:45 | 38.53554 | -80.23469 | 38003 ft | 305 kts | 256° |
| 2026-05-07 15:46 | 38.52083 | -80.31391 | 38000 ft | 305 kts | 256° |
| 2026-05-07 15:47 | 38.51099 | -80.36671 | 37999 ft | 305 kts | 256° |
| 2026-05-07 15:47 | 38.50122 | -80.41905 | 38010 ft | 306 kts | 256° |
| 2026-05-07 15:48 | 38.49130 | -80.47203 | 38006 ft | 308 kts | 256° |
| 2026-05-07 15:48 | 38.48129 | -80.52530 | 37997 ft | 307 kts | 256° |
| 2026-05-07 15:49 | 38.47131 | -80.57834 | 37985 ft | 307 kts | 256° |
| 2026-05-07 15:49 | 38.46126 | -80.63155 | 37981 ft | 308 kts | 256° |
| 2026-05-07 15:50 | 38.45118 | -80.68480 | 37991 ft | 309 kts | 256° |
| 2026-05-07 15:50 | 38.44115 | -80.73766 | 37973 ft | 308 kts | 256° |
| 2026-05-07 15:51 | 38.43104 | -80.79078 | 37992 ft | 308 kts | 256° |
| 2026-05-07 15:51 | 38.42087 | -80.84407 | 37964 ft | 309 kts | 256° |
| 2026-05-07 15:52 | 38.41071 | -80.89720 | 37977 ft | 309 kts | 256° |
| 2026-05-07 15:52 | 38.40050 | -80.95041 | 38007 ft | 308 kts | 256° |
| 2026-05-07 15:53 | 38.39031 | -81.00336 | 38000 ft | 308 kts | 256° |
| 2026-05-07 15:53 | 38.38013 | -81.05627 | 38001 ft | 308 kts | 256° |
| 2026-05-07 15:54 | 38.36898 | -81.10887 | 38002 ft | 307 kts | 253° |
| 2026-05-07 15:54 | 38.35635 | -81.16097 | 38002 ft | 307 kts | 254° |
| 2026-05-07 15:55 | 38.34384 | -81.21297 | 37997 ft | 307 kts | 254° |
| 2026-05-07 15:55 | 38.33138 | -81.26480 | 37976 ft | 307 kts | 254° |
| 2026-05-07 15:56 | 38.31881 | -81.31698 | 38006 ft | 310 kts | 255° |
| 2026-05-07 15:56 | 38.30612 | -81.36952 | 37994 ft | 310 kts | 254° |
| 2026-05-07 15:57 | 38.29345 | -81.42191 | 37998 ft | 310 kts | 254° |
| 2026-05-07 15:57 | 38.28068 | -81.47440 | 38011 ft | 310 kts | 254° |
| 2026-05-07 15:58 | 38.26786 | -81.52672 | 38021 ft | 309 kts | 253° |
| 2026-05-07 15:58 | 38.25514 | -81.57856 | 38012 ft | 308 kts | 253° |
| 2026-05-07 15:59 | 38.24231 | -81.63069 | 38030 ft | 309 kts | 253° |
| 2026-05-07 15:59 | 38.22946 | -81.68284 | 38051 ft | 308 kts | 254° |
| 2026-05-07 16:00 | 38.21569 | -81.73425 | 38026 ft | 308 kts | 252° |
| 2026-05-07 16:00 | 38.20131 | -81.78554 | 38020 ft | 308 kts | 253° |
| 2026-05-07 16:01 | 38.18692 | -81.83698 | 38019 ft | 309 kts | 252° |
| 2026-05-07 16:01 | 38.17250 | -81.88847 | 38010 ft | 308 kts | 252° |
| 2026-05-07 16:02 | 38.15818 | -81.93950 | 38005 ft | 308 kts | 252° |
| 2026-05-07 16:02 | 38.14377 | -81.99078 | 38002 ft | 308 kts | 252° |
| 2026-05-07 16:03 | 38.12933 | -82.04201 | 38003 ft | 308 kts | 252° |
| 2026-05-07 16:03 | 38.11487 | -82.09326 | 38006 ft | 308 kts | 252° |
| 2026-05-07 16:04 | 38.10048 | -82.14413 | 38015 ft | 308 kts | 252° |
| 2026-05-07 16:04 | 38.08598 | -82.19534 | 38009 ft | 308 kts | 252° |
| 2026-05-07 16:05 | 38.07145 | -82.24649 | 38008 ft | 308 kts | 252° |
| 2026-05-07 16:05 | 38.05691 | -82.29761 | 37998 ft | 308 kts | 252° |
| 2026-05-07 16:06 | 38.04234 | -82.34875 | 38011 ft | 308 kts | 252° |
| 2026-05-07 16:06 | 38.02773 | -82.39990 | 38054 ft | 308 kts | 252° |
| 2026-05-07 16:07 | 38.01331 | -82.45034 | 38012 ft | 304 kts | 252° |
| 2026-05-07 16:07 | 37.99884 | -82.50085 | 38012 ft | 305 kts | 252° |
| 2026-05-07 16:08 | 37.98430 | -82.55143 | 37999 ft | 304 kts | 252° |
| 2026-05-07 16:08 | 37.96978 | -82.60177 | 38004 ft | 304 kts | 252° |
| 2026-05-07 16:09 | 37.95518 | -82.65230 | 37941 ft | 305 kts | 252° |
| 2026-05-07 16:09 | 37.94053 | -82.70298 | 38026 ft | 308 kts | 252° |
| 2026-05-07 16:10 | 37.92588 | -82.75346 | 38026 ft | 307 kts | 252° |
| 2026-05-07 16:10 | 37.91113 | -82.80426 | 38064 ft | 307 kts | 252° |
| 2026-05-07 16:11 | 37.89622 | -82.85491 | 38032 ft | 306 kts | 252° |
| 2026-05-07 16:11 | 37.88113 | -82.90539 | 38024 ft | 306 kts | 252° |
| 2026-05-07 16:12 | 37.86600 | -82.95582 | 38027 ft | 306 kts | 252° |
| 2026-05-07 16:12 | 37.85091 | -83.00594 | 38023 ft | 306 kts | 252° |
| 2026-05-07 16:13 | 37.83574 | -83.05625 | 38023 ft | 306 kts | 252° |
| 2026-05-07 16:13 | 37.82055 | -83.10652 | 38025 ft | 306 kts | 252° |
| 2026-05-07 16:14 | 37.80532 | -83.15680 | 38039 ft | 306 kts | 252° |
| 2026-05-07 16:14 | 37.79012 | -83.20696 | 38049 ft | 305 kts | 252° |
| 2026-05-07 16:15 | 37.77360 | -83.25636 | 38027 ft | 309 kts | 245° |
| 2026-05-07 16:15 | 37.75213 | -83.30341 | 37974 ft | 310 kts | 246° |
| 2026-05-07 16:16 | 37.73041 | -83.35069 | 38025 ft | 312 kts | 245° |
| 2026-05-07 16:16 | 37.70855 | -83.39791 | 38043 ft | 311 kts | 245° |
| 2026-05-07 16:17 | 37.68664 | -83.44512 | 38029 ft | 311 kts | 245° |
| 2026-05-07 16:17 | 37.66476 | -83.49222 | 38019 ft | 311 kts | 245° |
| 2026-05-07 16:18 | 37.64282 | -83.53938 | 38058 ft | 311 kts | 245° |
| 2026-05-07 16:18 | 37.62103 | -83.58615 | 38030 ft | 310 kts | 245° |
| 2026-05-07 16:19 | 37.59911 | -83.63313 | 38034 ft | 311 kts | 245° |
| 2026-05-07 16:19 | 37.57717 | -83.68007 | 38028 ft | 310 kts | 245° |
| 2026-05-07 16:20 | 37.55523 | -83.72695 | 38023 ft | 310 kts | 245° |
| 2026-05-07 16:20 | 37.53322 | -83.77392 | 38020 ft | 312 kts | 245° |
| 2026-05-07 16:21 | 37.51105 | -83.82114 | 38039 ft | 313 kts | 245° |
| 2026-05-07 16:21 | 37.48889 | -83.86830 | 38028 ft | 313 kts | 245° |
| 2026-05-07 16:22 | 37.46671 | -83.91542 | 38067 ft | 313 kts | 245° |
| 2026-05-07 16:22 | 37.44467 | -83.96217 | 38037 ft | 312 kts | 245° |
| 2026-05-07 16:23 | 37.42246 | -84.00923 | 38032 ft | 312 kts | 245° |
| 2026-05-07 16:23 | 37.40033 | -84.05605 | 38024 ft | 312 kts | 245° |
| 2026-05-07 16:24 | 37.37810 | -84.10302 | 38035 ft | 313 kts | 245° |
| 2026-05-07 16:24 | 37.35585 | -84.14994 | 38023 ft | 312 kts | 245° |
| 2026-05-07 16:25 | 37.33361 | -84.19679 | 37923 ft | 313 kts | 245° |
| 2026-05-07 16:25 | 37.31503 | -84.23589 | 38036 ft | 315 kts | 245° |
| 2026-05-07 16:26 | 37.28882 | -84.29094 | 38074 ft | 315 kts | 245° |
| 2026-05-07 16:26 | 37.26625 | -84.33828 | 38036 ft | 315 kts | 245° |
| 2026-05-07 16:27 | 37.24755 | -84.37745 | 38032 ft | 315 kts | 245° |
| 2026-05-07 16:27 | 37.22501 | -84.42460 | 38043 ft | 315 kts | 245° |
| 2026-05-07 16:28 | 37.20248 | -84.47166 | 38045 ft | 315 kts | 245° |
| 2026-05-07 16:28 | 37.17626 | -84.52635 | 38045 ft | 315 kts | 245° |
| 2026-05-07 16:29 | 37.15744 | -84.56555 | 38044 ft | 315 kts | 245° |
| 2026-05-07 16:29 | 37.13480 | -84.61266 | 38041 ft | 315 kts | 245° |
| 2026-05-07 16:30 | 37.11215 | -84.65969 | 37971 ft | 315 kts | 245° |
| 2026-05-07 16:30 | 37.08943 | -84.70683 | 38044 ft | 317 kts | 245° |
| 2026-05-07 16:31 | 37.06663 | -84.75405 | 38049 ft | 316 kts | 245° |
| 2026-05-07 16:31 | 37.04400 | -84.80085 | 38044 ft | 316 kts | 245° |
| 2026-05-07 16:32 | 37.02121 | -84.84791 | 38078 ft | 316 kts | 245° |
| 2026-05-07 16:32 | 36.99840 | -84.89496 | 38081 ft | 316 kts | 245° |
| 2026-05-07 16:32 | 36.98688 | -84.91872 | 36906 ft | 325 kts | 244° |
| 2026-05-07 16:33 | 36.97522 | -84.94270 | 36453 ft | 319 kts | 245° |
| 2026-05-07 16:33 | 36.96373 | -84.96635 | 35875 ft | 317 kts | 245° |
| 2026-05-07 16:33 | 36.95230 | -84.98984 | 35234 ft | 316 kts | 245° |
| 2026-05-07 16:33 | 36.94086 | -85.01334 | 34559 ft | 316 kts | 244° |
| 2026-05-07 16:34 | 36.92941 | -85.03686 | 33832 ft | 317 kts | 244° |
| 2026-05-07 16:34 | 36.91787 | -85.06052 | 33059 ft | 319 kts | 244° |
| 2026-05-07 16:34 | 36.90645 | -85.08395 | 32263 ft | 320 kts | 244° |
| 2026-05-07 16:34 | 36.89480 | -85.10782 | 31451 ft | 322 kts | 244° |
| 2026-05-07 16:35 | 36.88308 | -85.13181 | 30541 ft | 325 kts | 244° |
| 2026-05-07 16:35 | 36.87122 | -85.15606 | 29633 ft | 329 kts | 244° |
| 2026-05-07 16:35 | 36.85923 | -85.18058 | 28610 ft | 332 kts | 244° |
| 2026-05-07 16:35 | 36.84705 | -85.20545 | 27496 ft | 339 kts | 243° |
| 2026-05-07 16:36 | 36.83480 | -85.23044 | 26847 ft | 337 kts | 243° |
| 2026-05-07 16:36 | 36.82240 | -85.25576 | 26269 ft | 343 kts | 243° |
| 2026-05-07 16:36 | 36.81008 | -85.28093 | 25734 ft | 346 kts | 243° |
| 2026-05-07 16:36 | 36.79748 | -85.30662 | 25209 ft | 347 kts | 242° |
| 2026-05-07 16:37 | 36.78482 | -85.33238 | 24650 ft | 347 kts | 243° |
| 2026-05-07 16:37 | 36.77220 | -85.35804 | 24108 ft | 346 kts | 242° |
| 2026-05-07 16:37 | 36.75964 | -85.38357 | 23546 ft | 345 kts | 242° |
| 2026-05-07 16:37 | 36.74730 | -85.40917 | 22923 ft | 344 kts | 243° |
| 2026-05-07 16:38 | 36.73521 | -85.43494 | 22543 ft | 345 kts | 243° |
| 2026-05-07 16:38 | 36.72302 | -85.46086 | 22270 ft | 347 kts | 243° |
| 2026-05-07 16:38 | 36.71077 | -85.48687 | 21942 ft | 347 kts | 243° |
| 2026-05-07 16:38 | 36.69854 | -85.51282 | 21583 ft | 347 kts | 243° |
| 2026-05-07 16:39 | 36.68631 | -85.53876 | 21202 ft | 346 kts | 243° |
| 2026-05-07 16:39 | 36.67410 | -85.56464 | 20854 ft | 346 kts | 243° |
| 2026-05-07 16:39 | 36.66207 | -85.59012 | 20453 ft | 345 kts | 243° |
| 2026-05-07 16:39 | 36.64992 | -85.61583 | 20123 ft | 343 kts | 243° |
| 2026-05-07 16:40 | 36.63780 | -85.64144 | 19771 ft | 342 kts | 243° |
| 2026-05-07 16:40 | 36.62570 | -85.66699 | 19416 ft | 342 kts | 243° |
| 2026-05-07 16:40 | 36.61362 | -85.69249 | 19061 ft | 342 kts | 243° |
| 2026-05-07 16:40 | 36.60153 | -85.71797 | 18697 ft | 342 kts | 243° |
| 2026-05-07 16:41 | 36.58943 | -85.74348 | 18398 ft | 342 kts | 243° |
| 2026-05-07 16:41 | 36.57735 | -85.76894 | 18062 ft | 342 kts | 243° |
| 2026-05-07 16:41 | 36.56525 | -85.79441 | 17757 ft | 341 kts | 243° |
| 2026-05-07 16:41 | 36.55316 | -85.81987 | 17517 ft | 341 kts | 243° |
| 2026-05-07 16:42 | 36.54113 | -85.84518 | 17279 ft | 336 kts | 243° |
| 2026-05-07 16:42 | 36.52959 | -85.86945 | 17068 ft | 324 kts | 244° |
| 2026-05-07 16:42 | 36.51832 | -85.89313 | 16864 ft | 313 kts | 244° |
| 2026-05-07 16:42 | 36.50741 | -85.91604 | 16667 ft | 303 kts | 244° |
| 2026-05-07 16:43 | 36.49686 | -85.93818 | 16483 ft | 293 kts | 244° |
| 2026-05-07 16:43 | 36.48661 | -85.95967 | 16272 ft | 285 kts | 244° |
| 2026-05-07 16:43 | 36.47657 | -85.98072 | 15886 ft | 283 kts | 244° |
| 2026-05-07 16:43 | 36.46657 | -86.00168 | 15503 ft | 281 kts | 244° |
| 2026-05-07 16:44 | 36.45660 | -86.02254 | 15103 ft | 280 kts | 244° |
| 2026-05-07 16:44 | 36.44670 | -86.04325 | 14685 ft | 279 kts | 244° |
| 2026-05-07 16:44 | 36.43673 | -86.06409 | 14178 ft | 281 kts | 244° |
| 2026-05-07 16:44 | 36.42671 | -86.08503 | 13744 ft | 282 kts | 244° |
| 2026-05-07 16:45 | 36.41667 | -86.10598 | 13284 ft | 282 kts | 244° |
| 2026-05-07 16:45 | 36.40674 | -86.12672 | 12844 ft | 283 kts | 244° |
| 2026-05-07 16:45 | 36.39666 | -86.14773 | 12411 ft | 283 kts | 244° |
| 2026-05-07 16:45 | 36.38661 | -86.16868 | 11975 ft | 283 kts | 244° |
| 2026-05-07 16:46 | 36.37654 | -86.18963 | 11658 ft | 281 kts | 244° |
| 2026-05-07 16:46 | 36.36663 | -86.21025 | 11400 ft | 276 kts | 244° |
| 2026-05-07 16:46 | 36.35686 | -86.23056 | 11124 ft | 271 kts | 243° |
| 2026-05-07 16:46 | 36.34725 | -86.25053 | 10880 ft | 268 kts | 243° |
| 2026-05-07 16:47 | 36.33776 | -86.27025 | 10606 ft | 265 kts | 243° |
| 2026-05-07 16:47 | 36.32835 | -86.28977 | 10314 ft | 262 kts | 243° |
| 2026-05-07 16:47 | 36.31902 | -86.30913 | 10044 ft | 260 kts | 243° |
| 2026-05-07 16:47 | 36.30979 | -86.32827 | 9742 ft | 257 kts | 243° |
| 2026-05-07 16:48 | 36.30078 | -86.34695 | 9450 ft | 255 kts | 243° |
| 2026-05-07 16:48 | 36.29172 | -86.36570 | 9187 ft | 252 kts | 243° |
| 2026-05-07 16:48 | 36.28276 | -86.38426 | 8906 ft | 249 kts | 243° |
| 2026-05-07 16:48 | 36.27385 | -86.40268 | 8636 ft | 250 kts | 243° |
| 2026-05-07 16:49 | 36.26487 | -86.42125 | 8380 ft | 252 kts | 243° |
| 2026-05-07 16:49 | 36.25585 | -86.43990 | 8103 ft | 253 kts | 242° |
| 2026-05-07 16:49 | 36.24678 | -86.45864 | 7844 ft | 254 kts | 242° |
| 2026-05-07 16:49 | 36.23769 | -86.47740 | 7539 ft | 254 kts | 242° |
| 2026-05-07 16:50 | 36.22858 | -86.49619 | 7246 ft | 253 kts | 242° |
| 2026-05-07 16:50 | 36.21762 | -86.51321 | 6939 ft | 257 kts | 221° |
| 2026-05-07 16:50 | 36.20147 | -86.52307 | 6662 ft | 261 kts | 202° |
| 2026-05-07 16:50 | 36.18439 | -86.53018 | 6399 ft | 258 kts | 202° |
| 2026-05-07 16:51 | 36.16738 | -86.53725 | 6121 ft | 258 kts | 202° |
| 2026-05-07 16:51 | 36.15049 | -86.54418 | 5789 ft | 259 kts | 201° |
| 2026-05-07 16:51 | 36.13341 | -86.55110 | 5522 ft | 257 kts | 201° |
| 2026-05-07 16:51 | 36.11645 | -86.55796 | 5246 ft | 255 kts | 201° |
| 2026-05-07 16:52 | 36.09955 | -86.56463 | 4990 ft | 253 kts | 199° |
| 2026-05-07 16:52 | 36.08291 | -86.57082 | 4803 ft | 247 kts | 198° |
| 2026-05-07 16:52 | 36.06665 | -86.57664 | 4695 ft | 239 kts | 197° |
| 2026-05-07 16:52 | 36.05079 | -86.58197 | 4544 ft | 235 kts | 196° |
| 2026-05-07 16:53 | 36.03498 | -86.58729 | 4463 ft | 234 kts | 196° |
| 2026-05-07 16:53 | 36.01924 | -86.59266 | 4406 ft | 235 kts | 196° |
| 2026-05-07 16:53 | 36.00344 | -86.59798 | 4286 ft | 237 kts | 196° |
| 2026-05-07 16:53 | 35.98756 | -86.60354 | 4080 ft | 238 kts | 197° |
| 2026-05-07 16:54 | 35.97178 | -86.60891 | 3929 ft | 237 kts | 195° |
| 2026-05-07 16:54 | 35.95599 | -86.61407 | 3810 ft | 233 kts | 196° |
| 2026-05-07 16:54 | 35.94032 | -86.61935 | 3762 ft | 235 kts | 197° |
| 2026-05-07 16:54 | 35.92464 | -86.62474 | 3754 ft | 234 kts | 196° |
| 2026-05-07 16:55 | 35.90936 | -86.63008 | 3602 ft | 223 kts | 196° |
| 2026-05-07 16:55 | 35.89486 | -86.63568 | 3385 ft | 214 kts | 208° |
| 2026-05-07 16:55 | 35.88448 | -86.64768 | 3135 ft | 200 kts | 246° |
| 2026-05-07 16:55 | 35.88209 | -86.66370 | 2902 ft | 187 kts | 284° |
| 2026-05-07 16:56 | 35.88605 | -86.67861 | 2821 ft | 183 kts | 295° |
| 2026-05-07 16:56 | 35.89086 | -86.69317 | 2784 ft | 182 kts | 296° |
| 2026-05-07 16:56 | 35.90038 | -86.72213 | 2800 ft | 183 kts | 295° |
| 2026-05-07 16:57 | 35.90546 | -86.73658 | 2791 ft | 183 kts | 296° |
| 2026-05-07 16:57 | 35.91241 | -86.74921 | 2747 ft | 177 kts | 326° |
| 2026-05-07 16:57 | 35.92368 | -86.75344 | 2801 ft | 171 kts | 0° |
| 2026-05-07 16:57 | 35.93540 | -86.75206 | 2812 ft | 168 kts | 9° |
| 2026-05-07 16:58 | 35.94674 | -86.74916 | 2833 ft | 165 kts | 12° |
| 2026-05-07 16:58 | 35.95774 | -86.74556 | 2854 ft | 160 kts | 14° |
| 2026-05-07 16:58 | 35.96830 | -86.74169 | 2787 ft | 156 kts | 15° |
| 2026-05-07 16:58 | 35.97871 | -86.73786 | 2805 ft | 156 kts | 16° |
| 2026-05-07 16:59 | 35.98901 | -86.73383 | 2805 ft | 154 kts | 16° |
| 2026-05-07 16:59 | 35.99928 | -86.72973 | 2702 ft | 156 kts | 17° |
| 2026-05-07 16:59 | 36.00930 | -86.72572 | 2583 ft | 154 kts | 15° |
| 2026-05-07 16:59 | 36.01948 | -86.72164 | 2340 ft | 153 kts | 17° |
| 2026-05-07 17:00 | 36.02945 | -86.71763 | 2131 ft | 146 kts | 18° |
| 2026-05-07 17:00 | 36.03896 | -86.71380 | 1969 ft | 142 kts | 16° |
| 2026-05-07 17:00 | 36.04810 | -86.71016 | 1812 ft | 135 kts | 17° |
| 2026-05-07 17:00 | 36.05678 | -86.70666 | 1601 ft | 134 kts | 17° |
| 2026-05-07 17:01 | 36.06566 | -86.70305 | 1393 ft | 134 kts | 20° |
| 2026-05-07 17:01 | 36.07457 | -86.69907 | 1274 ft | 138 kts | 16° |
| 2026-05-07 17:01 | 36.08399 | -86.69573 | 1089 ft | 142 kts | 14° |
| 2026-05-07 17:01 | 36.09350 | -86.69207 | 876 ft | 143 kts | 17° |
| 2026-05-07 17:02 | 36.10269 | -86.68823 | 645 ft | 136 kts | 17° |
| 2026-05-07 17:02 | 36.11105 | -86.68489 | 574 ft | 110 kts | 18° |
| 2026-05-07 17:02 | 36.11602 | -86.68290 | 580 ft | 47 kts | 17° |
| 2026-05-07 17:02 | 36.11849 | -86.68194 | 580 ft | 39 kts | 19° |
| 2026-05-07 17:03 | 36.11977 | -86.68119 | 578 ft | 15 kts | 48° |
| 2026-05-07 17:03 | 36.12028 | -86.67999 | 582 ft | 17 kts | 62° |
| 2026-05-07 17:03 | 36.12078 | -86.67885 | 581 ft | 10 kts | 62° |
| 2026-05-07 17:03 | 36.12116 | -86.67809 | 583 ft | 11 kts | 39° |
| 2026-05-07 17:04 | 36.12183 | -86.67768 | 582 ft | 12 kts | 41° |
| 2026-05-07 17:04 | 36.12231 | -86.67671 | 581 ft | 14 kts | 62° |
| 2026-05-07 17:04 | 36.12301 | -86.67570 | 583 ft | 16 kts | 41° |
| 2026-05-07 17:04 | 36.12386 | -86.67471 | 582 ft | 18 kts | 41° |
| 2026-05-07 17:05 | 36.12489 | -86.67370 | 586 ft | 16 kts | 42° |
| 2026-05-07 17:05 | 36.12557 | -86.67288 | 582 ft | 13 kts | 57° |
| 2026-05-07 17:05 | 36.12527 | -86.67182 | 579 ft | 16 kts | 136° |
| 2026-05-07 17:05 | 36.12446 | -86.67077 | 581 ft | 17 kts | 132° |
| 2026-05-07 17:06 | 36.12435 | -86.66995 | 577 ft | 11 kts | 47° |
| 2026-05-07 17:06 | 36.12511 | -86.66937 | 576 ft | 14 kts | 29° |
| 2026-05-07 17:06 | 36.12606 | -86.66871 | 573 ft | 17 kts | 29° |
| 2026-05-07 17:06 | 36.12696 | -86.66794 | 578 ft | 14 kts | 42° |
| 2026-05-07 17:07 | 36.12751 | -86.66745 | 573 ft | 13 kts | 22° |
| 2026-05-07 17:07 | 36.12794 | -86.66705 | 576 ft | 4 kts | 73° |
| 2026-05-07 17:07 | 36.12796 | -86.66665 | 572 ft | 3 kts | 92° |
| 2026-05-07 17:07 | 36.12796 | -86.66659 | 572 ft | 0 kts | 92° |